CheckWX is a tool to help pilots better visualize weather data.  It is not intended as a substitute for an official pre-flight weather briefing.

13:09:49 UTC

KOPF TAF
Miami-Opa Locka Executive Airport
Miami, Florida, USA
KOPF 171121Z 1712/1812 32010KT P6SM BKN010 FM171500 34010KT P6SM FEW035 SCT050 FM180000 VRB04KT P6SM FEW050

Nov-17@
12:00 UTC

Nov-17 @ 12:00 UTC

Nov-17@
15:00 UTC

Nov-17 @ 15:00 UTC

KOPF 171121Z 1712/1812 32010KT P6SM BKN010
Wind
  • 320° at 10 KTS
Cloud Levels
  • Broken at 1,000' AGL

Nov-17@
15:00 UTC

Nov-17 @ 15:00 UTC

Nov-18@
00:00 UTC

Nov-18 @ 00:00 UTC

FM171500 34010KT P6SM FEW035 SCT050

From

From Standard forecast or significant change

Wind
  • 340° at 10 KTS
Cloud Levels
  • Few at 3,500' AGL
  • Scattered at 5,000' AGL

Nov-18@
00:00 UTC

Nov-18 @ 00:00 UTC

Nov-18@
12:00 UTC

Nov-18 @ 12:00 UTC

FM180000 VRB04KT P6SM FEW050

From

From Standard forecast or significant change

Wind
  • Variable at 4 KTS
Cloud Levels
  • Few at 5,000' AGL